Alva, Wyoming
Current Conditions -  °F | °C
As of 11:15 PM on Monday 20 Oct 2014 (Local Time) from KW43 Reporting Station
Clear Clear  
Wind Chill: 68°   Ceiling: Unl
Heat Index: 68°   Visibility: 10mi
Dew Point: 34°   Wind: 9mph
Humidity: 28%   Direction: 200°SSW
Pressure: 29.89"   Gusts: 17mph
Location:  44.69°N, 104.44°W
Report Text: KW43 210515Z AUTO 20008G15KT 10SM CLR 20/01 A2989 RMK AO2
Loading
Personal Weather Stations






























Interactive Weather Map
Tropical Storm Tracking
New forecast layout! Learn more

10-Day Weather Forecast

Advertisements
Track Severe Weather on mobile